Flight Information

DEPARTURE
SAN JOSE, CA
Elevation:
62
Runways:
12R/30L - 11000x150 - CONC-G
12L/30R - 11000x150 - CONC-G
ATIS:
126.95 408-980-8459
Clearance Delivery:
118
Ground:
121.7
Tower:
SAN JOSE TOWER 124.0
DESTINATION
,
Elevation:
TPA:
1000 (est.)


6891.1 NM69° True-15° Var54° HDG

Flight Plan:
(click to file on line)

1. Type
2. Aircraft Identification
3. Aircraft Type / Special Equipment
4. True Airspeed
kts
5. Departure Airport
(ICAO code)
6. Arriving Airport
(ICAO code)
7. Cruising Altitude
ft
8. Alternate Airport
(ICAO code)
9. Route of Flight
10. Remarks


00:00:00 Departure ATIS: Destination ATIS:

Clearance Limit:
Route:
Altitude: Expect in minutes
Frequency:
Transponder: (7500 Hijack / 7600 Lost Comms / 7700 Emergency)


KSJC 281153Z AUTO 00000KT 10SM CLR 20/11 A2988 RMK AO2 SLP119 T02000106 10244 20183 53004 $
Time: 2020-09-28T11:53:00Z
1601297313
Winds: calm
Visibility: 10.0 sm
Clouds (AGL): CLR
Temperature: 20.0 C
Dew Point: 10.6 C
Pressure: 29.878937 in Hgbr


Notes:

Data extracted from FAA Digital Chart Supplement. Effective: 0901Z Thursday, Sep 10, 2020 to 0901Z Thursday, Nov 5, 2020
Current ATIS data is provided courtisy of PilotEdge.